Time,TemperatureF,DewpointF,PressureIn,WindDirection,WindDirectionDegrees,WindSpeedMPH,WindSpeedGustMPH,Humidity,HourlyPrecipIn,Conditions,Clouds,dailyrainin,SoftwareType,DateUTC
2013-03-02 00:00:00,-999.9,-99.9,30.02,North,32767,-999.0,0.0,255,-99.99,,,0.00,Wunderground v.1.13,2013-03-02 05:00:00,
2013-03-02 00:09:00,-999.9,-99.9,30.02,North,32767,-999.0,0.0,255,-99.99,,,0.00,Wunderground v.1.13,2013-03-02 05:09:00,
2013-03-02 00:19:00,-999.9,-99.9,30.02,North,32767,-999.0,0.0,255,-99.99,,,0.00,Wunderground v.1.13,2013-03-02 05:19:00,
2013-03-02 00:29:00,55.7,-99.9,30.03,West,274,0.0,0.0,255,-99.99,,,0.00,Wunderground v.1.13,2013-03-02 05:29:00,
2013-03-02 00:39:00,55.6,41.5,30.03,NNW,335,6.0,6.0,59,0.00,,,0.00,Wunderground v.1.13,2013-03-02 05:39:00,
2013-03-02 00:49:00,55.6,41.5,30.03,WSW,256,0.0,0.0,59,0.00,,,0.00,Wunderground v.1.13,2013-03-02 05:49:00,
2013-03-02 01:00:00,-999.9,-99.9,30.03,N/A,-737280,0.0,0.0,-32768,0.00,,,0.00,Wunderground v.1.13,2013-03-02 06:00:00,
2013-03-02 01:10:00,-999.9,-99.9,30.03,WNW,301,2.0,2.0,255,-99.99,,,0.00,Wunderground v.1.13,2013-03-02 06:10:00,
2013-03-02 01:19:00,55.0,-99.9,30.02,North,357,4.0,9.0,255,0.00,,,0.00,Wunderground v.1.13,2013-03-02 06:19:00,
2013-03-02 01:29:00,55.0,-99.9,30.02,North,349,8.0,8.0,255,0.00,,,0.00,Wunderground v.1.13,2013-03-02 06:29:00,
2013-03-02 01:39:00,54.8,41.6,30.02,NW,320,4.0,4.0,61,0.00,,,0.00,Wunderground v.1.13,2013-03-02 06:39:00,
2013-03-02 01:49:00,54.8,41.2,30.02,North,0,5.0,5.0,60,0.00,,,0.00,Wunderground v.1.13,2013-03-02 06:49:00,
2013-03-02 01:59:00,54.8,41.2,30.02,NNW,330,6.0,6.0,60,0.00,,,0.00,Wunderground v.1.13,2013-03-02 06:59:00,
2013-03-02 02:09:00,54.7,41.1,30.02,WNW,299,3.0,3.0,60,0.00,,,0.00,Wunderground v.1.13,2013-03-02 07:09:00,
2013-03-02 02:19:00,54.7,41.5,30.02,NNE,13,4.0,4.0,61,0.00,,,0.00,Wunderground v.1.13,2013-03-02 07:19:00,
2013-03-02 02:29:00,54.7,41.5,30.02,WNW,301,3.0,6.0,61,0.00,,,0.00,Wunderground v.1.13,2013-03-02 07:29:00,
2013-03-02 02:39:00,54.7,41.5,30.02,North,357,6.0,6.0,61,0.00,,,0.00,Wunderground v.1.13,2013-03-02 07:39:00,
2013-03-02 02:49:00,54.8,41.6,30.02,NNW,333,7.0,7.0,61,0.00,,,0.00,Wunderground v.1.13,2013-03-02 07:49:00,
2013-03-02 02:59:00,54.8,40.3,30.01,SSW,210,4.0,4.0,58,0.00,,,0.00,Wunderground v.1.13,2013-03-02 07:59:00,
2013-03-02 03:09:00,54.8,40.3,30.01,West,263,4.0,4.0,58,0.00,,,0.00,Wunderground v.1.13,2013-03-02 08:09:00,
2013-03-02 03:19:00,54.7,40.2,30.02,NNW,343,4.0,4.0,58,0.00,,,0.00,Wunderground v.1.13,2013-03-02 08:19:00,
2013-03-02 03:29:00,54.8,39.8,30.01,NW,316,4.0,4.0,57,0.00,,,0.00,Wunderground v.1.13,2013-03-02 08:29:00,
2013-03-02 03:39:00,54.8,39.8,30.01,NW,319,2.0,2.0,57,0.00,,,0.00,Wunderground v.1.13,2013-03-02 08:39:00,
2013-03-02 03:49:00,54.7,38.8,30.01,NNE,16,5.0,5.0,55,0.00,,,0.00,Wunderground v.1.13,2013-03-02 08:49:00,
2013-03-02 03:59:00,54.4,39.5,30.01,NW,309,3.0,4.0,57,0.00,,,0.00,Wunderground v.1.13,2013-03-02 08:59:00,
2013-03-02 04:09:00,54.2,39.3,30.01,North,0,0.0,0.0,57,0.00,,,0.00,Wunderground v.1.13,2013-03-02 09:09:00,
2013-03-02 04:19:00,54.2,39.3,30.00,NW,326,1.0,1.0,57,0.00,,,0.00,Wunderground v.1.13,2013-03-02 09:19:00,
2013-03-02 04:29:00,-999.9,-99.9,30.00,North,32767,-999.0,0.0,255,-99.99,,,0.00,Wunderground v.1.13,2013-03-02 09:29:00,
2013-03-02 04:39:00,-999.9,-99.9,30.00,North,32767,-999.0,0.0,255,-99.99,,,0.00,Wunderground v.1.13,2013-03-02 09:39:00,
2013-03-02 04:49:00,-999.9,-99.9,30.00,North,32767,-999.0,0.0,255,-99.99,,,0.00,Wunderground v.1.13,2013-03-02 09:49:00,
2013-03-02 04:59:00,-999.9,-99.9,29.99,North,32767,-999.0,0.0,255,-99.99,,,0.00,Wunderground v.1.13,2013-03-02 09:59:00,
2013-03-02 05:19:00,-999.9,-99.9,29.99,North,32767,-999.0,0.0,255,-99.99,,,0.00,Wunderground v.1.13,2013-03-02 10:19:00,
2013-03-02 05:29:00,-999.9,-99.9,30.00,North,32767,-999.0,0.0,255,-99.99,,,0.00,Wunderground v.1.13,2013-03-02 10:29:00,
2013-03-02 05:39:00,-999.9,-99.9,30.00,North,32767,-999.0,0.0,255,-99.99,,,0.00,Wunderground v.1.13,2013-03-02 10:39:00,
2013-03-02 05:49:00,-999.9,-99.9,30.00,North,32767,-999.0,0.0,255,-99.99,,,0.00,Wunderground v.1.13,2013-03-02 10:49:00,
2013-03-02 05:59:00,-999.9,-99.9,30.00,North,32767,-999.0,0.0,255,-99.99,,,0.00,Wunderground v.1.13,2013-03-02 10:59:00,
2013-03-02 06:09:00,-999.9,-99.9,30.00,North,32767,-999.0,0.0,255,-99.99,,,0.00,Wunderground v.1.13,2013-03-02 11:09:00,
2013-03-02 06:19:00,-999.9,-99.9,30.01,North,32767,-999.0,0.0,255,-99.99,,,0.00,Wunderground v.1.13,2013-03-02 11:19:00,
2013-03-02 06:29:00,-999.9,-99.9,30.00,North,32767,-999.0,0.0,255,-99.99,,,0.00,Wunderground v.1.13,2013-03-02 11:29:00,
2013-03-02 06:39:00,-999.9,-99.9,30.00,North,32767,-999.0,0.0,255,-99.99,,,0.00,Wunderground v.1.13,2013-03-02 11:39:00,
2013-03-02 06:49:00,-999.9,-99.9,30.01,North,32767,-999.0,0.0,255,-99.99,,,0.00,Wunderground v.1.13,2013-03-02 11:49:00,
2013-03-02 06:59:00,-999.9,-99.9,30.00,North,32767,-999.0,0.0,255,-99.99,,,0.00,Wunderground v.1.13,2013-03-02 11:59:00,
2013-03-02 07:09:00,-999.9,-99.9,30.00,North,32767,-999.0,0.0,255,-99.99,,,0.00,Wunderground v.1.13,2013-03-02 12:09:00,
2013-03-02 07:19:00,-999.9,-99.9,30.01,North,32767,-999.0,0.0,255,-99.99,,,0.00,Wunderground v.1.13,2013-03-02 12:19:00,
2013-03-02 07:29:00,-999.9,-99.9,30.03,North,32767,-999.0,0.0,255,-99.99,,,0.00,Wunderground v.1.13,2013-03-02 12:29:00,
2013-03-02 07:39:00,-999.9,-99.9,30.03,North,32767,-999.0,0.0,255,-99.99,,,0.00,Wunderground v.1.13,2013-03-02 12:39:00,
2013-03-02 07:49:00,-999.9,-99.9,30.04,North,32767,-999.0,0.0,255,-99.99,,,0.00,Wunderground v.1.13,2013-03-02 12:49:00,
2013-03-02 07:59:00,47.4,40.2,30.04,SE,141,0.0,0.0,76,0.00,,,0.00,Wunderground v.1.13,2013-03-02 12:59:00,
2013-03-02 08:09:00,47.0,41.1,30.04,SE,141,0.0,0.0,80,0.00,,,0.00,Wunderground v.1.13,2013-03-02 13:09:00,
2013-03-02 08:19:00,46.8,41.9,30.05,SE,141,0.0,0.0,83,0.00,,,0.00,Wunderground v.1.13,2013-03-02 13:19:00,
2013-03-02 08:29:00,46.8,42.2,30.05,SE,141,0.0,0.0,84,0.00,,,0.00,Wunderground v.1.13,2013-03-02 13:29:00,
2013-03-02 08:39:00,47.0,42.4,30.05,SE,141,0.0,0.0,84,0.00,,,0.00,Wunderground v.1.13,2013-03-02 13:39:00,
2013-03-02 08:49:00,47.1,42.5,30.05,SE,141,0.0,0.0,84,0.00,,,0.00,Wunderground v.1.13,2013-03-02 13:49:00,
2013-03-02 08:59:00,47.1,42.5,30.05,SE,141,0.0,0.0,84,0.00,,,0.00,Wunderground v.1.13,2013-03-02 13:59:00,
2013-03-02 09:09:00,51.1,46.4,30.05,ESE,110,0.0,0.0,84,0.00,,,0.00,Wunderground v.1.13,2013-03-02 14:09:00,
2013-03-02 09:19:00,51.7,47.0,30.05,NNE,28,0.0,0.0,84,0.00,,,0.00,Wunderground v.1.13,2013-03-02 14:19:00,
2013-03-02 09:29:00,51.7,47.0,30.06,NE,37,0.0,0.0,84,0.00,,,0.00,Wunderground v.1.13,2013-03-02 14:29:00,
2013-03-02 09:39:00,51.3,46.6,30.06,NNE,32,0.0,0.0,84,0.00,,,0.00,Wunderground v.1.13,2013-03-02 14:39:00,
2013-03-02 09:49:00,-999.9,-99.9,30.06,North,32767,-999.0,0.0,255,-99.99,,,0.00,Wunderground v.1.13,2013-03-02 14:49:00,
2013-03-02 09:59:00,-999.9,-99.9,30.06,North,32767,-999.0,0.0,255,-99.99,,,0.00,Wunderground v.1.13,2013-03-02 14:59:00,
2013-03-02 10:29:00,-999.9,-99.9,30.07,North,32767,-999.0,0.0,255,-99.99,,,0.00,Wunderground v.1.13,2013-03-02 15:29:00,
2013-03-02 10:39:00,52.6,-99.9,30.07,NNW,343,13.0,13.0,255,0.00,,,0.00,Wunderground v.1.13,2013-03-02 15:39:00,
2013-03-02 10:49:00,53.3,-99.9,30.08,NW,306,6.0,6.0,255,0.00,,,0.00,Wunderground v.1.13,2013-03-02 15:49:00,
2013-03-02 10:59:00,-999.9,-99.9,30.08,North,32767,-999.0,0.0,255,-99.99,,,0.00,Wunderground v.1.13,2013-03-02 15:59:00,
2013-03-02 11:09:00,-999.9,-99.9,30.08,North,32767,-999.0,0.0,255,-99.99,,,0.00,Wunderground v.1.13,2013-03-02 16:09:00,
2013-03-02 11:19:00,-999.9,-99.9,30.08,North,32767,-999.0,0.0,255,-99.99,,,0.00,Wunderground v.1.13,2013-03-02 16:19:00,
2013-03-02 11:29:00,56.6,-99.9,30.08,NNW,344,9.0,9.0,255,0.00,,,0.00,Wunderground v.1.13,2013-03-02 16:29:00,
2013-03-02 11:39:00,56.7,40.7,30.08,North,357,7.0,8.0,55,0.00,,,0.00,Wunderground v.1.13,2013-03-02 16:39:00,
2013-03-02 11:49:00,56.9,40.9,30.07,NNW,343,8.0,9.0,55,0.00,,,0.00,Wunderground v.1.13,2013-03-02 16:49:00,
2013-03-02 11:59:00,56.3,41.3,30.07,NNW,347,5.0,8.0,57,0.00,,,0.00,Wunderground v.1.13,2013-03-02 16:59:00,
2013-03-02 12:09:00,56.2,41.2,30.07,NNW,346,1.0,1.0,57,0.00,,,0.00,Wunderground v.1.13,2013-03-02 17:09:00,
2013-03-02 12:19:00,56.5,41.4,30.07,North,350,8.0,8.0,57,0.00,,,0.00,Wunderground v.1.13,2013-03-02 17:19:00,
2013-03-02 12:29:00,56.7,41.6,30.06,North,350,9.0,9.0,57,0.00,,,0.00,Wunderground v.1.13,2013-03-02 17:29:00,
2013-03-02 12:39:00,56.3,41.3,30.06,North,352,9.0,9.0,57,0.00,,,0.00,Wunderground v.1.13,2013-03-02 17:39:00,
2013-03-02 12:49:00,56.3,41.3,30.07,West,267,12.0,14.0,57,0.00,,,0.00,Wunderground v.1.13,2013-03-02 17:49:00,
2013-03-02 12:59:00,55.9,40.9,30.05,NNW,340,7.0,7.0,57,0.00,,,0.00,Wunderground v.1.13,2013-03-02 17:59:00,
2013-03-02 13:09:00,56.3,41.3,30.05,WNW,294,10.0,10.0,57,0.00,,,0.00,Wunderground v.1.13,2013-03-02 18:09:00,
2013-03-02 13:19:00,56.5,41.4,30.04,North,357,7.0,7.0,57,0.00,,,0.00,Wunderground v.1.13,2013-03-02 18:19:00,
2013-03-02 13:29:00,57.2,42.1,30.04,NNW,335,1.0,1.0,57,0.00,,,0.00,Wunderground v.1.13,2013-03-02 18:29:00,
2013-03-02 13:39:00,-999.9,-99.9,30.04,North,32767,-999.0,0.0,255,-99.99,,,0.00,Wunderground v.1.13,2013-03-02 18:39:00,
2013-03-02 13:49:00,-999.9,-99.9,30.03,North,32767,-999.0,0.0,255,-99.99,,,0.00,Wunderground v.1.13,2013-03-02 18:49:00,
2013-03-02 13:59:00,-999.9,-99.9,30.02,North,32767,-999.0,0.0,255,-99.99,,,0.00,Wunderground v.1.13,2013-03-02 18:59:00,
2013-03-02 14:09:00,-999.9,-99.9,30.02,North,32767,-999.0,0.0,255,-99.99,,,0.00,Wunderground v.1.13,2013-03-02 19:09:00,
2013-03-02 14:19:00,-999.9,-99.9,30.02,North,32767,-999.0,0.0,255,-99.99,,,0.00,Wunderground v.1.13,2013-03-02 19:19:00,
2013-03-02 14:29:00,-999.9,-99.9,30.02,North,32767,-999.0,0.0,255,-99.99,,,0.00,Wunderground v.1.13,2013-03-02 19:29:00,
2013-03-02 14:39:00,-999.9,-99.9,30.02,North,32767,-999.0,0.0,255,-99.99,,,0.00,Wunderground v.1.13,2013-03-02 19:39:00,
2013-03-02 14:49:00,-999.9,-99.9,30.01,North,32767,-999.0,0.0,255,-99.99,,,0.00,Wunderground v.1.13,2013-03-02 19:49:00,
2013-03-02 14:59:00,-999.9,-99.9,30.00,North,32767,-999.0,0.0,255,-99.99,,,0.00,Wunderground v.1.13,2013-03-02 19:59:00,
2013-03-02 15:09:00,-999.9,-99.9,30.00,North,32767,-999.0,0.0,255,-99.99,,,0.00,Wunderground v.1.13,2013-03-02 20:09:00,
2013-03-02 15:19:00,-999.9,-99.9,30.00,North,32767,-999.0,0.0,255,-99.99,,,0.00,Wunderground v.1.13,2013-03-02 20:19:00,
2013-03-02 15:29:00,-999.9,-99.9,30.00,North,32767,-999.0,0.0,255,-99.99,,,0.00,Wunderground v.1.13,2013-03-02 20:29:00,
2013-03-02 15:39:00,57.0,-99.9,30.00,NNW,330,8.0,8.0,255,0.00,,,0.00,Wunderground v.1.13,2013-03-02 20:39:00,
2013-03-02 15:49:00,56.9,-99.9,30.00,North,352,7.0,8.0,255,0.00,,,0.00,Wunderground v.1.13,2013-03-02 20:49:00,
2013-03-02 15:59:00,56.7,41.6,30.00,NW,313,6.0,6.0,57,0.00,,,0.00,Wunderground v.1.13,2013-03-02 20:59:00,
2013-03-02 16:09:00,56.7,41.6,30.00,WNW,299,8.0,8.0,57,0.00,,,0.00,Wunderground v.1.13,2013-03-02 21:09:00,
2013-03-02 16:19:00,-999.9,-99.9,30.00,North,32767,-999.0,0.0,255,-99.99,,,0.00,Wunderground v.1.13,2013-03-02 21:19:00,
2013-03-02 16:29:00,-999.9,-99.9,29.99,North,32767,-999.0,0.0,255,-99.99,,,0.00,Wunderground v.1.13,2013-03-02 21:29:00,
2013-03-02 16:39:00,-999.9,-99.9,29.99,North,32767,-999.0,0.0,255,-99.99,,,0.00,Wunderground v.1.13,2013-03-02 21:39:00,
2013-03-02 16:49:00,-999.9,-99.9,29.99,North,32767,-999.0,0.0,255,-99.99,,,0.00,Wunderground v.1.13,2013-03-02 21:49:00,
2013-03-02 16:59:00,55.9,-99.9,29.99,North,0,3.0,3.0,255,0.00,,,0.00,Wunderground v.1.13,2013-03-02 21:59:00,
2013-03-02 17:09:00,54.8,-99.9,29.99,NNW,339,6.0,6.0,255,0.00,,,0.00,Wunderground v.1.13,2013-03-02 22:09:00,
2013-03-02 17:19:00,54.2,41.5,30.00,NW,320,7.0,7.0,62,0.00,,,0.00,Wunderground v.1.13,2013-03-02 22:19:00,
2013-03-02 17:29:00,54.4,42.1,30.00,WNW,295,4.0,4.0,63,0.00,,,0.00,Wunderground v.1.13,2013-03-02 22:29:00,
2013-03-02 17:39:00,54.4,41.2,30.00,WSW,240,6.0,6.0,61,0.00,,,0.00,Wunderground v.1.13,2013-03-02 22:39:00,
2013-03-02 17:49:00,54.2,41.9,30.00,NW,325,6.0,6.0,63,0.00,,,0.00,Wunderground v.1.13,2013-03-02 22:49:00,
2013-03-02 17:59:00,54.2,41.0,30.00,NW,318,8.0,8.0,61,0.00,,,0.00,Wunderground v.1.13,2013-03-02 22:59:00,
2013-03-02 18:09:00,54.1,42.2,30.00,NW,311,7.0,8.0,64,0.00,,,0.00,Wunderground v.1.13,2013-03-02 23:09:00,
2013-03-02 18:19:00,-999.9,-99.9,30.00,North,32767,-999.0,0.0,255,-99.99,,,0.00,Wunderground v.1.13,2013-03-02 23:19:00,
2013-03-02 18:29:00,-999.9,-99.9,30.00,North,32767,-999.0,0.0,255,-99.99,,,0.00,Wunderground v.1.13,2013-03-02 23:29:00,
2013-03-02 18:39:00,-999.9,-99.9,30.00,North,32767,-999.0,0.0,255,-99.99,,,0.00,Wunderground v.1.13,2013-03-02 23:39:00,
2013-03-02 18:49:00,-999.9,-99.9,30.00,North,32767,-999.0,0.0,255,-99.99,,,0.00,Wunderground v.1.13,2013-03-02 23:49:00,
2013-03-02 18:59:00,-999.9,-99.9,30.00,North,32767,-999.0,0.0,255,-99.99,,,0.00,Wunderground v.1.13,2013-03-02 23:59:00,
2013-03-02 19:09:00,-999.9,-99.9,30.00,North,32767,-999.0,0.0,255,-99.99,,,0.00,Wunderground v.1.13,2013-03-03 00:09:00,
2013-03-02 19:19:00,-999.9,-99.9,30.00,North,32767,-999.0,0.0,255,-99.99,,,0.00,Wunderground v.1.13,2013-03-03 00:19:00,
2013-03-02 19:29:00,53.9,-99.9,30.01,North,352,10.0,10.0,255,0.00,,,0.00,Wunderground v.1.13,2013-03-03 00:29:00,
2013-03-02 19:39:00,53.9,-99.9,30.01,NNW,342,9.0,9.0,255,0.00,,,0.00,Wunderground v.1.13,2013-03-03 00:39:00,
2013-03-02 19:49:00,-999.9,-99.9,30.01,North,32767,-999.0,0.0,255,-99.99,,,0.00,Wunderground v.1.13,2013-03-03 00:49:00,
2013-03-02 19:59:00,-999.9,-99.9,30.01,North,32767,-999.0,0.0,255,-99.99,,,0.00,Wunderground v.1.13,2013-03-03 00:59:00,
2013-03-02 20:09:00,-999.9,-99.9,30.01,North,32767,-999.0,0.0,255,-99.99,,,0.00,Wunderground v.1.13,2013-03-03 01:09:00,
2013-03-02 20:19:00,-999.9,-99.9,30.01,North,32767,-999.0,0.0,255,-99.99,,,0.00,Wunderground v.1.13,2013-03-03 01:19:00,
2013-03-02 20:29:00,-999.9,-99.9,30.02,North,32767,-999.0,0.0,255,-99.99,,,0.00,Wunderground v.1.13,2013-03-03 01:29:00,
2013-03-02 20:39:00,-999.9,-99.9,30.02,North,32767,-999.0,0.0,255,-99.99,,,0.00,Wunderground v.1.13,2013-03-03 01:39:00,
2013-03-02 20:49:00,-999.9,-99.9,30.02,North,32767,-999.0,0.0,255,-99.99,,,0.00,Wunderground v.1.13,2013-03-03 01:49:00,
2013-03-02 20:59:00,-999.9,-99.9,30.02,North,32767,-999.0,0.0,255,-99.99,,,0.00,Wunderground v.1.13,2013-03-03 01:59:00,
2013-03-02 21:09:00,-999.9,-99.9,30.02,North,32767,-999.0,0.0,255,-99.99,,,0.00,Wunderground v.1.13,2013-03-03 02:09:00,
2013-03-02 21:19:00,-999.9,-99.9,30.01,North,32767,-999.0,0.0,255,-99.99,,,0.00,Wunderground v.1.13,2013-03-03 02:19:00,
2013-03-02 21:29:00,-999.9,-99.9,30.01,North,32767,-999.0,0.0,255,-99.99,,,0.00,Wunderground v.1.13,2013-03-03 02:29:00,
2013-03-02 21:39:00,-999.9,-99.9,30.01,North,32767,-999.0,0.0,255,-99.99,,,0.00,Wunderground v.1.13,2013-03-03 02:39:00,
2013-03-02 21:49:00,-999.9,-99.9,30.01,North,32767,-999.0,0.0,255,-99.99,,,0.00,Wunderground v.1.13,2013-03-03 02:49:00,
2013-03-02 21:59:00,-999.9,-99.9,30.00,North,32767,-999.0,0.0,255,-99.99,,,0.00,Wunderground v.1.13,2013-03-03 02:59:00,
2013-03-02 22:09:00,-999.9,-99.9,30.00,North,32767,-999.0,0.0,255,-99.99,,,0.00,Wunderground v.1.13,2013-03-03 03:09:00,
2013-03-02 22:19:00,-999.9,-99.9,30.01,North,32767,-999.0,0.0,255,-99.99,,,0.00,Wunderground v.1.13,2013-03-03 03:19:00,
2013-03-02 22:29:00,-999.9,-99.9,30.01,North,32767,-999.0,0.0,255,-99.99,,,0.00,Wunderground v.1.13,2013-03-03 03:29:00,
2013-03-02 22:39:00,-999.9,-99.9,30.01,North,32767,-999.0,0.0,255,-99.99,,,0.00,Wunderground v.1.13,2013-03-03 03:39:00,
2013-03-02 22:49:00,-999.9,-99.9,30.02,North,32767,-999.0,0.0,255,-99.99,,,0.00,Wunderground v.1.13,2013-03-03 03:49:00,
2013-03-02 22:59:00,-999.9,-99.9,30.02,North,32767,-999.0,0.0,255,-99.99,,,0.00,Wunderground v.1.13,2013-03-03 03:59:00,
2013-03-02 23:09:00,-999.9,-99.9,30.02,North,32767,-999.0,0.0,255,-99.99,,,0.00,Wunderground v.1.13,2013-03-03 04:09:00,
2013-03-02 23:19:00,-999.9,-99.9,30.02,North,32767,-999.0,0.0,255,-99.99,,,0.00,Wunderground v.1.13,2013-03-03 04:19:00,
2013-03-02 23:29:00,-999.9,-99.9,30.02,North,32767,-999.0,0.0,255,-99.99,,,0.00,Wunderground v.1.13,2013-03-03 04:29:00,
2013-03-02 23:39:00,-999.9,-99.9,30.02,North,32767,-999.0,0.0,255,-99.99,,,0.00,Wunderground v.1.13,2013-03-03 04:39:00,
2013-03-02 23:49:00,-999.9,-99.9,30.01,North,32767,-999.0,0.0,255,-99.99,,,0.00,Wunderground v.1.13,2013-03-03 04:49:00,
2013-03-02 23:59:00,-999.9,-99.9,30.00,North,32767,-999.0,0.0,255,-99.99,,,0.00,Wunderground v.1.13,2013-03-03 04:59:00,